sensor_id;sensor_type;location;lat;lon;timestamp;pressure;altitude;pressure_sealevel;temperature;humidity
74659;BME280;63186;51.204;6.536;2024-02-15T00:00:36;101357.88;;;10.93;100.00
74659;BME280;63186;51.204;6.536;2024-02-15T00:03:03;101364.19;;;10.93;100.00
74659;BME280;63186;51.204;6.536;2024-02-15T00:05:28;101351.53;;;10.92;100.00
74659;BME280;63186;51.204;6.536;2024-02-15T00:07:53;101348.84;;;10.87;100.00
74659;BME280;63186;51.204;6.536;2024-02-15T00:10:19;101350.22;;;10.90;100.00
74659;BME280;63186;51.204;6.536;2024-02-15T00:12:48;101353.25;;;10.88;100.00
74659;BME280;63186;51.204;6.536;2024-02-15T00:15:15;101355.50;;;10.86;100.00
74659;BME280;63186;51.204;6.536;2024-02-15T00:17:40;101361.50;;;10.88;100.00
74659;BME280;63186;51.204;6.536;2024-02-15T00:20:06;101359.66;;;10.83;100.00
74659;BME280;63186;51.204;6.536;2024-02-15T00:22:35;101361.81;;;10.86;100.00
74659;BME280;63186;51.204;6.536;2024-02-15T00:25:00;101357.44;;;10.85;100.00
74659;BME280;63186;51.204;6.536;2024-02-15T00:27:25;101355.28;;;10.82;100.00
74659;BME280;63186;51.204;6.536;2024-02-15T00:29:51;101360.19;;;10.85;100.00
74659;BME280;63186;51.204;6.536;2024-02-15T00:32:16;101358.56;;;10.84;100.00
74659;BME280;63186;51.204;6.536;2024-02-15T00:34:41;101350.59;;;10.83;100.00
74659;BME280;63186;51.204;6.536;2024-02-15T00:37:06;101357.72;;;10.84;100.00
74659;BME280;63186;51.204;6.536;2024-02-15T00:39:32;101357.44;;;10.85;100.00
74659;BME280;63186;51.204;6.536;2024-02-15T00:41:58;101359.88;;;10.87;100.00
74659;BME280;63186;51.204;6.536;2024-02-15T00:44:25;101357.94;;;10.87;100.00
74659;BME280;63186;51.204;6.536;2024-02-15T00:46:51;101353.56;;;10.86;100.00
74659;BME280;63186;51.204;6.536;2024-02-15T00:49:16;101359.81;;;10.92;100.00
74659;BME280;63186;51.204;6.536;2024-02-15T00:51:41;101356.16;;;10.97;100.00
74659;BME280;63186;51.204;6.536;2024-02-15T00:54:07;101343.22;;;10.97;100.00
74659;BME280;63186;51.204;6.536;2024-02-15T00:56:32;101351.97;;;10.99;100.00
74659;BME280;63186;51.204;6.536;2024-02-15T00:59:01;101352.22;;;11.03;100.00
74659;BME280;63186;51.204;6.536;2024-02-15T01:01:26;101350.28;;;11.03;100.00
74659;BME280;63186;51.204;6.536;2024-02-15T01:03:51;101336.78;;;11.02;100.00
74659;BME280;63186;51.204;6.536;2024-02-15T01:06:17;101337.31;;;11.04;100.00
74659;BME280;63186;51.204;6.536;2024-02-15T01:08:42;101330.38;;;11.06;100.00
74659;BME280;63186;51.204;6.536;2024-02-15T01:11:07;101332.63;;;11.04;100.00
74659;BME280;63186;51.204;6.536;2024-02-15T01:13:34;101327.69;;;11.01;100.00
74659;BME280;63186;51.204;6.536;2024-02-15T01:16:00;101335.38;;;11.04;100.00
74659;BME280;63186;51.204;6.536;2024-02-15T01:18:28;101336.44;;;11.08;100.00
74659;BME280;63186;51.204;6.536;2024-02-15T01:20:55;101329.47;;;11.11;100.00
74659;BME280;63186;51.204;6.536;2024-02-15T01:23:20;101331.44;;;11.10;100.00
74659;BME280;63186;51.204;6.536;2024-02-15T01:25:47;101335.00;;;11.11;100.00
74659;BME280;63186;51.204;6.536;2024-02-15T01:28:12;101344.59;;;11.13;100.00
74659;BME280;63186;51.204;6.536;2024-02-15T01:30:38;101329.69;;;11.14;100.00
74659;BME280;63186;51.204;6.536;2024-02-15T01:33:03;101332.44;;;11.14;100.00
74659;BME280;63186;51.204;6.536;2024-02-15T01:35:29;101321.53;;;11.09;100.00
74659;BME280;63186;51.204;6.536;2024-02-15T01:37:54;101324.47;;;11.13;100.00
74659;BME280;63186;51.204;6.536;2024-02-15T01:40:19;101319.28;;;11.11;100.00
74659;BME280;63186;51.204;6.536;2024-02-15T01:42:45;101328.88;;;11.14;100.00
74659;BME280;63186;51.204;6.536;2024-02-15T01:45:10;101321.66;;;11.18;100.00
74659;BME280;63186;51.204;6.536;2024-02-15T01:47:39;101331.34;;;11.16;100.00
74659;BME280;63186;51.204;6.536;2024-02-15T01:50:10;101325.84;;;11.16;100.00
74659;BME280;63186;51.204;6.536;2024-02-15T01:52:37;101326.13;;;11.14;100.00
74659;BME280;63186;51.204;6.536;2024-02-15T01:55:03;101325.84;;;11.16;100.00
74659;BME280;63186;51.204;6.536;2024-02-15T01:57:34;101320.09;;;11.12;100.00
74659;BME280;63186;51.204;6.536;2024-02-15T02:00:00;101322.03;;;11.11;100.00
74659;BME280;63186;51.204;6.536;2024-02-15T02:02:28;101316.59;;;11.06;100.00
74659;BME280;63186;51.204;6.536;2024-02-15T02:04:56;101328.88;;;11.14;100.00
74659;BME280;63186;51.204;6.536;2024-02-15T02:07:21;101323.09;;;11.16;100.00
74659;BME280;63186;51.204;6.536;2024-02-15T02:09:47;101321.13;;;11.16;100.00
74659;BME280;63186;51.204;6.536;2024-02-15T02:12:12;101322.53;;;11.13;100.00
74659;BME280;63186;51.204;6.536;2024-02-15T02:14:38;101321.13;;;11.16;100.00
74659;BME280;63186;51.204;6.536;2024-02-15T02:17:14;101312.06;;;11.16;100.00
74659;BME280;63186;51.204;6.536;2024-02-15T02:19:40;101317.03;;;11.13;100.00
74659;BME280;63186;51.204;6.536;2024-02-15T02:22:05;101310.94;;;11.17;100.00
74659;BME280;63186;51.204;6.536;2024-02-15T02:24:38;101299.91;;;11.17;100.00
74659;BME280;63186;51.204;6.536;2024-02-15T02:27:07;101297.25;;;11.11;100.00
74659;BME280;63186;51.204;6.536;2024-02-15T02:29:33;101281.69;;;11.02;100.00
74659;BME280;63186;51.204;6.536;2024-02-15T02:31:58;101284.38;;;10.88;100.00
74659;BME280;63186;51.204;6.536;2024-02-15T02:34:23;101283.75;;;10.77;100.00
74659;BME280;63186;51.204;6.536;2024-02-15T02:36:50;101272.22;;;10.56;100.00
74659;BME280;63186;51.204;6.536;2024-02-15T02:39:16;101288.00;;;10.51;100.00
74659;BME280;63186;51.204;6.536;2024-02-15T02:41:41;101274.38;;;10.41;100.00
74659;BME280;63186;51.204;6.536;2024-02-15T02:44:07;101279.66;;;10.56;100.00
74659;BME280;63186;51.204;6.536;2024-02-15T02:46:33;101276.63;;;10.57;100.00
74659;BME280;63186;51.204;6.536;2024-02-15T02:48:58;101281.59;;;10.55;100.00
74659;BME280;63186;51.204;6.536;2024-02-15T02:51:23;101279.81;;;10.46;100.00
74659;BME280;63186;51.204;6.536;2024-02-15T02:53:49;101274.16;;;10.37;100.00
74659;BME280;63186;51.204;6.536;2024-02-15T02:56:14;101272.81;;;10.35;100.00
74659;BME280;63186;51.204;6.536;2024-02-15T02:58:39;101281.00;;;10.40;100.00
74659;BME280;63186;51.204;6.536;2024-02-15T03:01:08;101273.88;;;10.39;100.00
74659;BME280;63186;51.204;6.536;2024-02-15T03:03:33;101262.84;;;10.39;100.00
74659;BME280;63186;51.204;6.536;2024-02-15T03:05:59;101258.22;;;10.34;100.00
74659;BME280;63186;51.204;6.536;2024-02-15T03:08:24;101267.09;;;10.31;100.00
74659;BME280;63186;51.204;6.536;2024-02-15T03:10:50;101265.16;;;10.31;100.00
74659;BME280;63186;51.204;6.536;2024-02-15T03:13:17;101264.25;;;10.36;100.00
74659;BME280;63186;51.204;6.536;2024-02-15T03:15:47;101249.16;;;10.33;100.00
74659;BME280;63186;51.204;6.536;2024-02-15T03:18:15;101254.38;;;10.35;100.00
74659;BME280;63186;51.204;6.536;2024-02-15T03:20:41;101246.91;;;10.36;100.00
74659;BME280;63186;51.204;6.536;2024-02-15T03:23:07;101245.22;;;10.40;100.00
74659;BME280;63186;51.204;6.536;2024-02-15T03:25:32;101249.84;;;10.44;100.00
74659;BME280;63186;51.204;6.536;2024-02-15T03:28:00;101252.72;;;10.53;100.00
74659;BME280;63186;51.204;6.536;2024-02-15T03:30:29;101246.09;;;10.54;100.00
74659;BME280;63186;51.204;6.536;2024-02-15T03:32:56;101245.59;;;10.52;100.00
74659;BME280;63186;51.204;6.536;2024-02-15T03:35:24;101243.16;;;10.50;100.00
74659;BME280;63186;51.204;6.536;2024-02-15T03:37:50;101246.41;;;10.52;100.00
74659;BME280;63186;51.204;6.536;2024-02-15T03:40:20;101243.03;;;10.55;100.00
74659;BME280;63186;51.204;6.536;2024-02-15T03:42:45;101241.09;;;10.56;100.00
74659;BME280;63186;51.204;6.536;2024-02-15T03:45:12;101236.44;;;10.56;100.00
74659;BME280;63186;51.204;6.536;2024-02-15T03:47:37;101247.34;;;10.62;100.00
74659;BME280;63186;51.204;6.536;2024-02-15T03:50:06;101251.53;;;10.59;100.00
74659;BME280;63186;51.204;6.536;2024-02-15T03:52:34;101246.63;;;10.56;100.00
74659;BME280;63186;51.204;6.536;2024-02-15T03:55:00;101238.16;;;10.52;100.00
74659;BME280;63186;51.204;6.536;2024-02-15T03:57:27;101235.97;;;10.49;100.00
74659;BME280;63186;51.204;6.536;2024-02-15T03:59:53;101244.53;;;10.48;100.00
74659;BME280;63186;51.204;6.536;2024-02-15T04:02:22;101251.69;;;10.49;100.00
74659;BME280;63186;51.204;6.536;2024-02-15T04:04:49;101259.94;;;10.49;100.00
74659;BME280;63186;51.204;6.536;2024-02-15T04:07:14;101257.41;;;10.52;100.00
74659;BME280;63186;51.204;6.536;2024-02-15T04:09:41;101248.84;;;10.54;100.00
74659;BME280;63186;51.204;6.536;2024-02-15T04:12:06;101255.72;;;10.56;100.00
74659;BME280;63186;51.204;6.536;2024-02-15T04:14:33;101259.88;;;10.54;100.00
74659;BME280;63186;51.204;6.536;2024-02-15T04:16:59;101254.38;;;10.54;100.00
74659;BME280;63186;51.204;6.536;2024-02-15T04:19:24;101251.84;;;10.57;100.00
74659;BME280;63186;51.204;6.536;2024-02-15T04:21:49;101249.59;;;10.59;100.00
74659;BME280;63186;51.204;6.536;2024-02-15T04:24:16;101260.53;;;10.65;100.00
74659;BME280;63186;51.204;6.536;2024-02-15T04:26:41;101255.84;;;10.65;100.00
74659;BME280;63186;51.204;6.536;2024-02-15T04:29:07;101256.06;;;10.69;100.00
74659;BME280;63186;51.204;6.536;2024-02-15T04:31:35;101259.34;;;10.71;100.00
74659;BME280;63186;51.204;6.536;2024-02-15T04:34:04;101265.66;;;10.71;100.00
74659;BME280;63186;51.204;6.536;2024-02-15T04:36:30;101253.84;;;10.71;100.00
74659;BME280;63186;51.204;6.536;2024-02-15T04:38:59;101257.72;;;10.70;100.00
74659;BME280;63186;51.204;6.536;2024-02-15T04:41:26;101264.31;;;10.69;100.00
74659;BME280;63186;51.204;6.536;2024-02-15T04:43:52;101270.63;;;10.69;100.00
74659;BME280;63186;51.204;6.536;2024-02-15T04:46:18;101255.78;;;10.70;100.00
74659;BME280;63186;51.204;6.536;2024-02-15T04:48:47;101256.88;;;10.69;100.00
74659;BME280;63186;51.204;6.536;2024-02-15T04:51:14;101257.72;;;10.70;100.00
74659;BME280;63186;51.204;6.536;2024-02-15T04:53:39;101247.28;;;10.67;100.00
74659;BME280;63186;51.204;6.536;2024-02-15T04:56:06;101249.44;;;10.70;100.00
74659;BME280;63186;51.204;6.536;2024-02-15T04:58:42;101250.84;;;10.67;100.00
74659;BME280;63186;51.204;6.536;2024-02-15T05:01:14;101235.75;;;10.65;100.00
74659;BME280;63186;51.204;6.536;2024-02-15T05:03:41;101239.09;;;10.62;100.00
74659;BME280;63186;51.204;6.536;2024-02-15T05:06:06;101235.59;;;10.56;100.00
74659;BME280;63186;51.204;6.536;2024-02-15T05:08:34;101237.03;;;10.53;100.00
74659;BME280;63186;51.204;6.536;2024-02-15T05:11:07;101234.34;;;10.48;100.00
74659;BME280;63186;51.204;6.536;2024-02-15T05:13:38;101231.09;;;10.46;100.00
74659;BME280;63186;51.204;6.536;2024-02-15T05:16:04;101227.00;;;10.44;100.00
74659;BME280;63186;51.204;6.536;2024-02-15T05:18:30;101241.03;;;10.42;100.00
74659;BME280;63186;51.204;6.536;2024-02-15T05:20:56;101236.97;;;10.40;100.00
74659;BME280;63186;51.204;6.536;2024-02-15T05:23:21;101231.22;;;10.36;100.00
74659;BME280;63186;51.204;6.536;2024-02-15T05:25:46;101228.78;;;10.35;100.00
74659;BME280;63186;51.204;6.536;2024-02-15T05:28:12;101240.09;;;10.33;100.00
74659;BME280;63186;51.204;6.536;2024-02-15T05:30:37;101240.41;;;10.31;100.00
74659;BME280;63186;51.204;6.536;2024-02-15T05:33:04;101229.16;;;10.28;100.00
74659;BME280;63186;51.204;6.536;2024-02-15T05:35:29;101237.19;;;10.24;100.00
74659;BME280;63186;51.204;6.536;2024-02-15T05:37:54;101227.28;;;10.23;100.00
74659;BME280;63186;51.204;6.536;2024-02-15T05:40:21;101221.03;;;10.18;100.00
74659;BME280;63186;51.204;6.536;2024-02-15T05:42:46;101221.22;;;10.21;100.00
74659;BME280;63186;51.204;6.536;2024-02-15T05:45:28;101211.03;;;10.22;100.00
74659;BME280;63186;51.204;6.536;2024-02-15T05:47:58;101213.25;;;10.25;100.00
74659;BME280;63186;51.204;6.536;2024-02-15T05:50:24;101207.94;;;10.28;100.00
74659;BME280;63186;51.204;6.536;2024-02-15T05:52:52;101215.84;;;10.35;100.00
74659;BME280;63186;51.204;6.536;2024-02-15T05:55:19;101224.53;;;10.42;100.00
74659;BME280;63186;51.204;6.536;2024-02-15T05:57:45;101218.44;;;10.45;100.00
74659;BME280;63186;51.204;6.536;2024-02-15T06:00:11;101215.91;;;10.49;100.00
74659;BME280;63186;51.204;6.536;2024-02-15T06:02:37;101209.00;;;10.51;100.00
74659;BME280;63186;51.204;6.536;2024-02-15T06:05:03;101208.69;;;10.53;100.00
74659;BME280;63186;51.204;6.536;2024-02-15T06:07:30;101199.59;;;10.52;100.00
74659;BME280;63186;51.204;6.536;2024-02-15T06:09:57;101196.34;;;10.50;100.00
74659;BME280;63186;51.204;6.536;2024-02-15T06:12:22;101191.50;;;10.42;100.00
74659;BME280;63186;51.204;6.536;2024-02-15T06:14:48;101194.25;;;10.42;100.00
74659;BME280;63186;51.204;6.536;2024-02-15T06:17:13;101199.19;;;10.45;100.00
74659;BME280;63186;51.204;6.536;2024-02-15T06:19:39;101197.44;;;10.49;100.00
74659;BME280;63186;51.204;6.536;2024-02-15T06:22:05;101208.06;;;10.56;100.00
74659;BME280;63186;51.204;6.536;2024-02-15T06:24:30;101199.00;;;10.55;100.00
74659;BME280;63186;51.204;6.536;2024-02-15T06:26:55;101205.69;;;10.49;100.00
74659;BME280;63186;51.204;6.536;2024-02-15T06:29:25;101208.75;;;10.48;100.00
74659;BME280;63186;51.204;6.536;2024-02-15T06:32:09;101207.94;;;10.47;100.00
74659;BME280;63186;51.204;6.536;2024-02-15T06:34:53;101200.06;;;10.41;100.00
74659;BME280;63186;51.204;6.536;2024-02-15T06:37:38;101200.06;;;10.41;100.00
74659;BME280;63186;51.204;6.536;2024-02-15T06:40:23;101202.50;;;10.42;100.00
74659;BME280;63186;51.204;6.536;2024-02-15T06:42:48;101200.31;;;10.44;100.00
74659;BME280;63186;51.204;6.536;2024-02-15T06:45:14;101211.81;;;10.46;100.00
74659;BME280;63186;51.204;6.536;2024-02-15T06:47:43;101206.63;;;10.45;100.00
74659;BME280;63186;51.204;6.536;2024-02-15T06:50:12;101207.13;;;10.47;100.00
74659;BME280;63186;51.204;6.536;2024-02-15T06:52:38;101210.69;;;10.47;100.00
74659;BME280;63186;51.204;6.536;2024-02-15T06:55:06;101214.25;;;10.48;100.00
74659;BME280;63186;51.204;6.536;2024-02-15T06:57:33;101222.53;;;10.48;100.00
74659;BME280;63186;51.204;6.536;2024-02-15T07:00:04;101215.91;;;10.49;100.00
74659;BME280;63186;51.204;6.536;2024-02-15T07:02:36;101215.91;;;10.49;100.00
74659;BME280;63186;51.204;6.536;2024-02-15T07:05:02;101219.19;;;10.51;100.00
74659;BME280;63186;51.204;6.536;2024-02-15T07:07:31;101229.38;;;10.50;100.00
74659;BME280;63186;51.204;6.536;2024-02-15T07:09:57;101224.38;;;10.52;100.00
74659;BME280;63186;51.204;6.536;2024-02-15T07:12:22;101234.59;;;10.52;100.00
74659;BME280;63186;51.204;6.536;2024-02-15T07:14:47;101221.94;;;10.51;100.00
74659;BME280;63186;51.204;6.536;2024-02-15T07:17:13;101226.00;;;10.53;100.00
74659;BME280;63186;51.204;6.536;2024-02-15T07:19:45;101216.94;;;10.53;100.00
74659;BME280;63186;51.204;6.536;2024-02-15T07:22:16;101211.94;;;10.55;100.00
74659;BME280;63186;51.204;6.536;2024-02-15T07:24:42;101209.72;;;10.57;100.00
74659;BME280;63186;51.204;6.536;2024-02-15T07:27:08;101215.75;;;10.59;100.00
74659;BME280;63186;51.204;6.536;2024-02-15T07:29:34;101220.44;;;10.58;100.00
74659;BME280;63186;51.204;6.536;2024-02-15T07:32:06;101216.88;;;10.58;100.00
74659;BME280;63186;51.204;6.536;2024-02-15T07:34:32;101226.53;;;10.55;100.00
74659;BME280;63186;51.204;6.536;2024-02-15T07:36:58;101219.47;;;10.49;100.00
74659;BME280;63186;51.204;6.536;2024-02-15T07:39:24;101224.84;;;10.41;100.00
74659;BME280;63186;51.204;6.536;2024-02-15T07:41:56;101227.75;;;10.30;100.00
74659;BME280;63186;51.204;6.536;2024-02-15T07:44:23;101234.13;;;10.26;100.00
74659;BME280;63186;51.204;6.536;2024-02-15T07:46:50;101226.69;;;10.26;100.00
74659;BME280;63186;51.204;6.536;2024-02-15T07:49:15;101219.56;;;10.25;100.00
74659;BME280;63186;51.204;6.536;2024-02-15T07:51:42;101214.63;;;10.22;100.00
74659;BME280;63186;51.204;6.536;2024-02-15T07:54:08;101219.88;;;10.24;100.00
74659;BME280;63186;51.204;6.536;2024-02-15T07:56:34;101212.94;;;10.26;100.00
74659;BME280;63186;51.204;6.536;2024-02-15T07:59:00;101218.66;;;10.30;100.00
74659;BME280;63186;51.204;6.536;2024-02-15T08:01:25;101221.34;;;10.35;100.00
74659;BME280;63186;51.204;6.536;2024-02-15T08:03:51;101218.00;;;10.38;100.00
74659;BME280;63186;51.204;6.536;2024-02-15T08:06:18;101211.59;;;10.43;100.00
74659;BME280;63186;51.204;6.536;2024-02-15T08:08:44;101218.94;;;10.47;100.00
74659;BME280;63186;51.204;6.536;2024-02-15T08:11:16;101218.06;;;10.52;100.00
74659;BME280;63186;51.204;6.536;2024-02-15T08:13:47;101218.28;;;10.55;100.00
74659;BME280;63186;51.204;6.536;2024-02-15T08:16:20;101206.97;;;10.57;100.00
74659;BME280;63186;51.204;6.536;2024-02-15T08:18:47;101215.75;;;10.59;100.00
74659;BME280;63186;51.204;6.536;2024-02-15T08:21:13;101204.44;;;10.60;100.00
74659;BME280;63186;51.204;6.536;2024-02-15T08:23:39;101198.91;;;10.60;100.00
74659;BME280;63186;51.204;6.536;2024-02-15T08:26:05;101203.53;;;10.65;100.00
74659;BME280;63186;51.204;6.536;2024-02-15T08:28:30;101200.47;;;10.67;100.00
74659;BME280;63186;51.204;6.536;2024-02-15T08:30:56;101207.91;;;10.66;100.00
74659;BME280;63186;51.204;6.536;2024-02-15T08:33:24;101199.66;;;10.66;100.00
74659;BME280;63186;51.204;6.536;2024-02-15T08:35:50;101204.03;;;10.67;100.00
74659;BME280;63186;51.204;6.536;2024-02-15T08:38:16;101199.03;;;10.69;100.00
74659;BME280;63186;51.204;6.536;2024-02-15T08:40:42;101200.69;;;10.70;100.00
74659;BME280;63186;51.204;6.536;2024-02-15T08:43:09;101190.19;;;10.72;100.00
74659;BME280;63186;51.204;6.536;2024-02-15T08:45:34;101192.06;;;10.77;100.00
74659;BME280;63186;51.204;6.536;2024-02-15T08:48:00;101185.94;;;10.80;100.00
74659;BME280;63186;51.204;6.536;2024-02-15T08:50:29;101181.47;;;10.84;100.00
74659;BME280;63186;51.204;6.536;2024-02-15T08:52:55;101186.88;;;10.89;100.00
74659;BME280;63186;51.204;6.536;2024-02-15T08:55:20;101183.81;;;10.91;100.00
74659;BME280;63186;51.204;6.536;2024-02-15T08:57:52;101189.84;;;10.93;100.00
74659;BME280;63186;51.204;6.536;2024-02-15T09:00:17;101186.50;;;10.96;100.00
74659;BME280;63186;51.204;6.536;2024-02-15T09:02:43;101173.72;;;11.00;100.00
74659;BME280;63186;51.204;6.536;2024-02-15T09:05:09;101177.13;;;11.10;100.00
74659;BME280;63186;51.204;6.536;2024-02-15T09:07:35;101166.00;;;11.16;100.00
74659;BME280;63186;51.204;6.536;2024-02-15T09:10:02;101165.19;;;11.15;100.00
74659;BME280;63186;51.204;6.536;2024-02-15T09:12:28;101177.63;;;11.26;100.00
74659;BME280;63186;51.204;6.536;2024-02-15T09:14:53;101171.81;;;11.28;100.00
74659;BME280;63186;51.204;6.536;2024-02-15T09:17:19;101170.00;;;11.37;100.00
74659;BME280;63186;51.204;6.536;2024-02-15T09:19:47;101178.34;;;11.46;100.00
74659;BME280;63186;51.204;6.536;2024-02-15T09:22:14;101169.06;;;11.55;100.00
74659;BME280;63186;51.204;6.536;2024-02-15T09:24:39;101162.34;;;11.61;100.00
74659;BME280;63186;51.204;6.536;2024-02-15T09:27:04;101167.63;;;11.72;100.00
74659;BME280;63186;51.204;6.536;2024-02-15T09:29:30;101167.84;;;11.75;100.00
74659;BME280;63186;51.204;6.536;2024-02-15T09:31:56;101166.88;;;11.80;100.00
74659;BME280;63186;51.204;6.536;2024-02-15T09:34:23;101160.97;;;11.86;100.00
74659;BME280;63186;51.204;6.536;2024-02-15T09:36:48;101157.94;;;11.88;100.00
74659;BME280;63186;51.204;6.536;2024-02-15T09:39:13;101174.22;;;11.98;100.00
74659;BME280;63186;51.204;6.536;2024-02-15T09:41:39;101161.47;;;12.02;100.00
74659;BME280;63186;51.204;6.536;2024-02-15T09:44:06;101174.19;;;12.12;100.00
74659;BME280;63186;51.204;6.536;2024-02-15T09:46:35;101175.28;;;12.25;100.00
74659;BME280;63186;51.204;6.536;2024-02-15T09:49:02;101167.31;;;12.23;100.00
74659;BME280;63186;51.204;6.536;2024-02-15T09:51:29;101171.38;;;12.26;100.00
74659;BME280;63186;51.204;6.536;2024-02-15T09:53:56;101173.06;;;12.27;100.00
74659;BME280;63186;51.204;6.536;2024-02-15T09:56:24;101173.16;;;12.21;100.00
74659;BME280;63186;51.204;6.536;2024-02-15T09:58:51;101169.75;;;12.25;100.00
74659;BME280;63186;51.204;6.536;2024-02-15T10:01:19;101169.91;;;12.19;100.00
74659;BME280;63186;51.204;6.536;2024-02-15T10:03:49;101167.16;;;12.19;100.00
74659;BME280;63186;51.204;6.536;2024-02-15T10:06:16;101176.91;;;12.26;100.00
74659;BME280;63186;51.204;6.536;2024-02-15T10:08:43;101167.69;;;12.30;100.00
74659;BME280;63186;51.204;6.536;2024-02-15T10:11:08;101166.41;;;12.28;100.00
74659;BME280;63186;51.204;6.536;2024-02-15T10:13:35;101173.72;;;12.32;100.00
74659;BME280;63186;51.204;6.536;2024-02-15T10:16:14;101169.31;;;12.31;100.00
74659;BME280;63186;51.204;6.536;2024-02-15T10:18:40;101171.28;;;12.31;100.00
74659;BME280;63186;51.204;6.536;2024-02-15T10:21:05;101168.91;;;12.38;100.00
74659;BME280;63186;51.204;6.536;2024-02-15T10:23:30;101168.78;;;12.43;100.00
74659;BME280;63186;51.204;6.536;2024-02-15T10:25:56;101165.41;;;12.46;100.00
74659;BME280;63186;51.204;6.536;2024-02-15T10:28:23;101159.72;;;12.51;100.00
74659;BME280;63186;51.204;6.536;2024-02-15T10:30:49;101163.38;;;12.60;100.00
74659;BME280;63186;51.204;6.536;2024-02-15T10:33:30;101159.84;;;12.68;100.00
74659;BME280;63186;51.204;6.536;2024-02-15T10:36:09;101152.06;;;12.70;100.00
74659;BME280;63186;51.204;6.536;2024-02-15T10:38:34;101159.75;;;12.73;100.00
74659;BME280;63186;51.204;6.536;2024-02-15T10:41:06;101154.91;;;12.79;100.00
74659;BME280;63186;51.204;6.536;2024-02-15T10:43:32;101156.56;;;12.89;100.00
74659;BME280;63186;51.204;6.536;2024-02-15T10:45:58;101146.38;;;12.98;100.00
74659;BME280;63186;51.204;6.536;2024-02-15T10:48:24;101138.94;;;13.07;100.00
74659;BME280;63186;51.204;6.536;2024-02-15T10:50:51;101141.56;;;13.12;100.00
74659;BME280;63186;51.204;6.536;2024-02-15T10:53:21;101141.81;;;13.24;100.00
74659;BME280;63186;51.204;6.536;2024-02-15T10:56:02;101149.00;;;13.43;100.00
74659;BME280;63186;51.204;6.536;2024-02-15T10:58:32;101138.19;;;13.64;100.00
74659;BME280;63186;51.204;6.536;2024-02-15T11:01:00;101136.44;;;13.85;100.00
74659;BME280;63186;51.204;6.536;2024-02-15T11:03:35;101134.97;;;14.05;100.00
74659;BME280;63186;51.204;6.536;2024-02-15T11:06:07;101138.41;;;14.19;100.00
74659;BME280;63186;51.204;6.536;2024-02-15T11:08:32;101130.56;;;14.21;100.00
74659;BME280;63186;51.204;6.536;2024-02-15T11:10:58;101127.47;;;14.31;100.00
74659;BME280;63186;51.204;6.536;2024-02-15T11:13:25;101131.41;;;14.48;100.00
74659;BME280;63186;51.204;6.536;2024-02-15T11:15:50;101134.31;;;14.51;100.00
74659;BME280;63186;51.204;6.536;2024-02-15T11:18:42;101134.00;;;14.53;100.00
74659;BME280;63186;51.204;6.536;2024-02-15T11:21:09;101127.44;;;14.66;100.00
74659;BME280;63186;51.204;6.536;2024-02-15T11:23:35;101121.88;;;14.83;100.00
74659;BME280;63186;51.204;6.536;2024-02-15T11:26:00;101122.34;;;14.94;100.00
74659;BME280;63186;51.204;6.536;2024-02-15T11:30:54;101120.56;;;15.19;100.00
74659;BME280;63186;51.204;6.536;2024-02-15T11:38:28;101114.69;;;15.59;100.00
74659;BME280;63186;51.204;6.536;2024-02-15T11:46:20;101092.56;;;15.41;100.00
74659;BME280;63186;51.204;6.536;2024-02-15T11:48:47;101092.03;;;15.48;100.00
74659;BME280;63186;51.204;6.536;2024-02-15T11:51:35;101083.50;;;15.62;100.00
74659;BME280;63186;51.204;6.536;2024-02-15T11:54:11;101092.78;;;15.66;100.00
74659;BME280;63186;51.204;6.536;2024-02-15T11:56:55;101087.41;;;15.61;100.00
74659;BME280;63186;51.204;6.536;2024-02-15T11:59:41;101089.84;;;15.62;100.00
74659;BME280;63186;51.204;6.536;2024-02-15T12:02:19;101081.53;;;15.62;100.00
74659;BME280;63186;51.204;6.536;2024-02-15T12:05:05;101083.31;;;15.67;100.00
74659;BME280;63186;51.204;6.536;2024-02-15T12:07:49;101081.81;;;15.69;100.00
74659;BME280;63186;51.204;6.536;2024-02-15T12:10:32;101084.25;;;15.71;100.00
74659;BME280;63186;51.204;6.536;2024-02-15T12:13:18;101080.19;;;15.68;100.00
74659;BME280;63186;51.204;6.536;2024-02-15T12:16:02;101068.97;;;15.65;100.00
74659;BME280;63186;51.204;6.536;2024-02-15T12:18:46;101065.66;;;15.71;100.00
74659;BME280;63186;51.204;6.536;2024-02-15T12:21:15;101072.00;;;15.72;100.00
74659;BME280;63186;51.204;6.536;2024-02-15T12:23:42;101069.34;;;15.76;100.00
74659;BME280;63186;51.204;6.536;2024-02-15T12:26:07;101064.41;;;15.81;100.00
74659;BME280;63186;51.204;6.536;2024-02-15T12:28:33;101052.97;;;15.83;100.00
74659;BME280;63186;51.204;6.536;2024-02-15T12:31:03;101052.34;;;15.77;100.00
74659;BME280;63186;51.204;6.536;2024-02-15T12:33:31;101040.97;;;15.70;100.00
74659;BME280;63186;51.204;6.536;2024-02-15T12:36:04;101041.78;;;15.70;100.00
74659;BME280;63186;51.204;6.536;2024-02-15T12:38:34;101029.88;;;15.70;100.00
74659;BME280;63186;51.204;6.536;2024-02-15T12:41:03;101027.34;;;15.65;100.00
74659;BME280;63186;51.204;6.536;2024-02-15T12:43:28;101036.59;;;15.69;100.00
74659;BME280;63186;51.204;6.536;2024-02-15T12:45:55;101033.00;;;15.68;100.00
74659;BME280;63186;51.204;6.536;2024-02-15T12:48:23;101029.88;;;15.70;100.00
74659;BME280;63186;51.204;6.536;2024-02-15T12:50:49;101029.06;;;15.69;100.00
74659;BME280;63186;51.204;6.536;2024-02-15T12:53:22;101033.81;;;15.69;100.00
74659;BME280;63186;51.204;6.536;2024-02-15T12:55:54;101030.56;;;15.67;100.00